Time;durP1;ratioP1;P1;durP2;ratioP2;P2;SDS_P1;SDS_P2;PMS_P1;PMS_P2;Temp;Humidity;BMP_temperature;BMP_pressure;BME280_temperature;BME280_humidity;BME280_pressure;Samples;Min_cycle;Max_cycle;Signal;HPM_P1;HPM_P2
2022/12/31 00:00:56;;;;;;;4.20;4.10;;;14.30;99.90;;;;;;5062142;28;20510;-64
2022/12/31 00:03:22;;;;;;;4.20;4.10;;;14.30;99.90;;;;;;5044124;28;20540;-64
2022/12/31 00:05:48;;;;;;;4.50;4.30;;;14.30;99.90;;;;;;5049939;28;20242;-64
2022/12/31 00:08:13;;;;;;;4.00;3.90;;;14.30;99.90;;;;;;5052146;28;20178;-64
2022/12/31 00:10:40;;;;;;;4.00;3.90;;;14.30;99.90;;;;;;5050572;28;20651;-64
2022/12/31 00:13:09;;;;;;;4.30;4.20;;;14.20;99.90;;;;;;5050674;28;20189;-64
2022/12/31 00:15:36;;;;;;;4.13;3.97;;;14.30;99.90;;;;;;5050941;28;20439;-64
2022/12/31 00:18:02;;;;;;;4.10;4.00;;;14.30;99.90;;;;;;5051109;28;20520;-64
2022/12/31 00:20:28;;;;;;;3.60;3.50;;;14.30;99.90;;;;;;5043668;28;20527;-65
2022/12/31 00:22:53;;;;;;;3.80;3.70;;;14.30;99.90;;;;;;5044148;28;20209;-65
2022/12/31 00:25:19;;;;;;;3.83;3.73;;;14.20;99.90;;;;;;5049146;28;20430;-64
2022/12/31 00:27:45;;;;;;;4.70;4.50;;;14.30;99.90;;;;;;5036193;28;20226;-64
2022/12/31 00:30:11;;;;;;;4.20;4.10;;;14.20;99.90;;;;;;5050056;28;20178;-64
2022/12/31 00:32:37;;;;;;;3.70;3.60;;;14.20;99.90;;;;;;5055336;28;20173;-64
2022/12/31 00:35:03;;;;;;;3.60;3.60;;;14.20;99.90;;;;;;5054738;28;20437;-64
2022/12/31 00:37:28;;;;;;;4.03;3.90;;;14.10;99.90;;;;;;5054439;28;20193;-65
2022/12/31 00:39:54;;;;;;;3.60;3.50;;;14.10;99.90;;;;;;5053871;28;20455;-64
2022/12/31 00:42:20;;;;;;;3.40;3.30;;;14.20;99.90;;;;;;5054713;28;20671;-64
2022/12/31 00:44:46;;;;;;;3.23;3.13;;;14.20;99.90;;;;;;5053822;28;20186;-64
2022/12/31 00:47:11;;;;;;;4.00;3.90;;;14.20;99.90;;;;;;5055404;28;20248;-64
2022/12/31 00:49:37;;;;;;;3.90;3.80;;;14.20;99.90;;;;;;5049169;28;20190;-70
2022/12/31 00:52:03;;;;;;;4.33;4.23;;;14.20;99.90;;;;;;5047685;28;20235;-69
2022/12/31 00:54:29;;;;;;;4.47;4.37;;;14.20;99.90;;;;;;5051311;28;20783;-66
2022/12/31 00:56:55;;;;;;;4.80;4.60;;;14.20;99.90;;;;;;5052351;28;20428;-65
2022/12/31 00:59:20;;;;;;;4.80;4.70;;;14.20;99.90;;;;;;5054492;28;20545;-65
2022/12/31 01:01:46;;;;;;;5.00;4.90;;;14.20;99.90;;;;;;5052863;28;20193;-65
2022/12/31 01:04:16;;;;;;;4.80;4.70;;;14.30;99.90;;;;;;5052718;28;20634;-65
2022/12/31 01:06:43;;;;;;;4.93;4.80;;;14.30;99.90;;;;;;5053288;28;20177;-67
2022/12/31 01:09:10;;;;;;;4.97;4.87;;;14.50;99.90;;;;;;5053581;28;20881;-65
2022/12/31 01:11:36;;;;;;;4.60;4.50;;;14.40;99.90;;;;;;5054273;28;20537;-65
2022/12/31 01:14:13;;;;;;;4.37;4.27;;;14.40;99.90;;;;;;5051099;28;20464;-65
2022/12/31 01:16:42;;;;;;;4.50;4.40;;;14.40;99.90;;;;;;5036791;28;20460;-70
2022/12/31 01:19:11;;;;;;;4.37;4.27;;;14.40;99.90;;;;;;5054654;28;20424;-65
2022/12/31 01:21:39;;;;;;;4.40;4.30;;;14.40;99.90;;;;;;5052147;28;20491;-65
2022/12/31 01:24:06;;;;;;;4.60;4.50;;;14.40;99.90;;;;;;5052887;28;20432;-65
2022/12/31 01:26:31;;;;;;;4.43;4.33;;;14.40;99.90;;;;;;5053491;28;20491;-65
2022/12/31 01:28:57;;;;;;;4.40;4.30;;;14.30;99.90;;;;;;5053871;28;20421;-65
2022/12/31 01:31:24;;;;;;;4.57;4.47;;;14.30;99.90;;;;;;5054099;28;20201;-64
2022/12/31 01:33:50;;;;;;;4.40;4.30;;;14.20;99.90;;;;;;5052077;28;20189;-64
2022/12/31 01:36:35;;;;;;;4.10;4.00;;;14.20;99.90;;;;;;5053289;28;20442;-64
2022/12/31 01:39:04;;;;;;;4.20;4.10;;;14.10;99.90;;;;;;5051096;28;20442;-65
2022/12/31 01:41:33;;;;;;;3.97;3.90;;;14.20;99.90;;;;;;5050918;28;20436;-65
2022/12/31 01:44:09;;;;;;;4.20;4.10;;;14.20;99.90;;;;;;5051324;28;20469;-65
2022/12/31 01:46:43;;;;;;;4.33;4.13;;;14.10;99.90;;;;;;5054263;28;20400;-65
2022/12/31 01:49:30;;;;;;;4.10;4.00;;;14.10;99.90;;;;;;5036605;28;20470;-65
2022/12/31 01:52:06;;;;;;;4.27;4.17;;;14.10;99.90;;;;;;5052586;28;20504;-65
2022/12/31 01:54:37;;;;;;;4.30;4.10;;;14.10;99.90;;;;;;5053715;28;20456;-65
2022/12/31 01:57:04;;;;;;;4.60;4.50;;;14.20;99.90;;;;;;5053207;28;20396;-65
2022/12/31 01:59:31;;;;;;;4.60;4.50;;;14.20;99.90;;;;;;5050604;28;20527;-65
2022/12/31 02:01:58;;;;;;;4.60;4.40;;;14.20;99.90;;;;;;5052492;28;20452;-65
2022/12/31 02:04:25;;;;;;;4.50;4.40;;;14.20;99.90;;;;;;5053705;28;20428;-65
2022/12/31 02:06:59;;;;;;;4.40;4.30;;;14.30;99.90;;;;;;5052873;28;20405;-65
2022/12/31 02:09:25;;;;;;;4.43;4.30;;;14.20;99.90;;;;;;5053658;28;20442;-65
2022/12/31 02:11:50;;;;;;;4.50;4.40;;;14.30;99.90;;;;;;5052673;28;20412;-65
2022/12/31 02:14:22;;;;;;;4.50;4.40;;;14.30;99.90;;;;;;5052751;28;20428;-64
2022/12/31 02:17:18;;;;;;;4.27;4.17;;;14.40;99.90;;;;;;5052185;28;20189;-65
2022/12/31 02:20:14;;;;;;;4.30;4.20;;;14.30;99.90;;;;;;5051038;28;20452;-69
2022/12/31 02:22:58;;;;;;;4.53;4.43;;;14.40;99.90;;;;;;5052031;28;20467;-65
2022/12/31 02:26:01;;;;;;;4.30;4.20;;;14.40;99.90;;;;;;5048258;28;20432;-65
2022/12/31 02:28:30;;;;;;;4.50;4.30;;;14.50;99.90;;;;;;5042200;28;20443;-65
2022/12/31 02:31:02;;;;;;;4.03;3.93;;;14.50;99.90;;;;;;5051836;28;20429;-65
2022/12/31 02:33:37;;;;;;;3.80;3.80;;;14.60;99.90;;;;;;5052851;28;20412;-65
2022/12/31 02:36:15;;;;;;;4.23;4.03;;;14.60;99.90;;;;;;5051866;28;21118;-65
2022/12/31 02:38:46;;;;;;;3.97;3.93;;;14.70;99.90;;;;;;5051879;28;20434;-65
2022/12/31 02:43:57;;;;;;;3.70;3.70;;;14.70;99.90;;;;;;5050893;28;20448;-65
2022/12/31 02:46:40;;;;;;;4.03;3.83;;;14.80;99.90;;;;;;5052046;28;20439;-65
2022/12/31 02:49:50;;;;;;;4.30;4.20;;;14.80;99.90;;;;;;5050947;28;20174;-65
2022/12/31 02:52:15;;;;;;;4.30;4.20;;;14.90;99.90;;;;;;5050532;28;20421;-65
2022/12/31 02:55:04;;;;;;;4.07;3.97;;;14.90;99.90;;;;;;5052819;28;20773;-65
2022/12/31 02:57:30;;;;;;;4.20;4.10;;;14.90;99.90;;;;;;5053322;28;20521;-65
2022/12/31 03:02:51;;;;;;;4.20;4.10;;;14.90;99.90;;;;;;5053017;28;20197;-65
2022/12/31 03:05:21;;;;;;;4.20;4.10;;;14.90;99.90;;;;;;5050558;28;20436;-64
2022/12/31 03:07:47;;;;;;;4.13;4.03;;;14.90;99.90;;;;;;5052513;28;20887;-65
2022/12/31 03:10:13;;;;;;;3.97;3.90;;;14.90;99.90;;;;;;5050190;28;20492;-64
2022/12/31 03:12:47;;;;;;;3.93;3.83;;;14.90;99.90;;;;;;5052560;28;20187;-65
2022/12/31 03:15:22;;;;;;;4.30;4.20;;;14.90;99.90;;;;;;5052954;28;20177;-65
2022/12/31 03:17:59;;;;;;;3.97;3.87;;;14.80;99.90;;;;;;5051079;28;20805;-66
2022/12/31 03:23:20;;;;;;;4.10;4.00;;;14.80;99.90;;;;;;5042308;28;20525;-65
2022/12/31 03:25:46;;;;;;;4.00;3.90;;;14.90;99.90;;;;;;5051437;28;20433;-70
2022/12/31 03:28:15;;;;;;;4.00;3.90;;;14.80;99.90;;;;;;5051119;28;20850;-65
2022/12/31 03:30:44;;;;;;;4.10;4.00;;;14.90;99.90;;;;;;5052300;28;20425;-65
2022/12/31 03:33:10;;;;;;;4.20;4.10;;;14.90;99.90;;;;;;5051974;28;20505;-65
2022/12/31 03:35:37;;;;;;;3.80;3.80;;;14.90;99.90;;;;;;5051097;28;20520;-65
2022/12/31 03:38:04;;;;;;;4.17;4.07;;;14.90;99.90;;;;;;5051606;28;20410;-65
2022/12/31 03:40:31;;;;;;;4.10;4.00;;;14.90;99.90;;;;;;5052243;28;20461;-65
2022/12/31 03:42:57;;;;;;;4.10;4.00;;;14.90;99.90;;;;;;5051552;28;20460;-65
2022/12/31 03:45:23;;;;;;;4.43;4.33;;;15.00;99.90;;;;;;5050991;28;20488;-65
2022/12/31 03:47:49;;;;;;;4.00;3.90;;;14.90;99.90;;;;;;5051269;28;20919;-69
2022/12/31 03:50:17;;;;;;;4.10;4.00;;;14.90;99.90;;;;;;5052303;28;20409;-65
2022/12/31 03:52:42;;;;;;;4.20;4.10;;;14.90;99.90;;;;;;5052261;28;20234;-65
2022/12/31 03:55:09;;;;;;;4.33;4.13;;;15.00;99.90;;;;;;5050508;28;20908;-65
2022/12/31 03:57:35;;;;;;;4.30;4.20;;;15.00;99.90;;;;;;5052520;28;20266;-65
2022/12/31 04:00:03;;;;;;;4.40;4.30;;;15.00;99.90;;;;;;5050139;28;20445;-65
2022/12/31 04:02:28;;;;;;;4.10;4.00;;;15.00;99.90;;;;;;5052161;28;20465;-65
2022/12/31 04:04:54;;;;;;;4.10;4.00;;;15.10;99.90;;;;;;5049561;28;20904;-65
2022/12/31 04:07:20;;;;;;;3.87;3.77;;;15.10;99.90;;;;;;5052269;28;20267;-65
2022/12/31 04:09:46;;;;;;;3.90;3.80;;;15.10;99.90;;;;;;5051839;28;20426;-68
2022/12/31 04:12:11;;;;;;;3.73;3.57;;;15.10;99.90;;;;;;5051473;28;20511;-65
2022/12/31 04:14:37;;;;;;;3.87;3.80;;;15.10;99.90;;;;;;5050167;28;20186;-65
2022/12/31 04:17:03;;;;;;;4.00;3.90;;;15.10;99.90;;;;;;5051426;28;20618;-65
2022/12/31 04:19:28;;;;;;;3.87;3.77;;;15.20;99.90;;;;;;5051056;28;20174;-65
2022/12/31 04:21:54;;;;;;;3.87;3.77;;;15.10;99.90;;;;;;5051084;28;20210;-65
2022/12/31 04:24:20;;;;;;;3.83;3.70;;;15.10;99.90;;;;;;5051910;28;20179;-65
2022/12/31 04:26:45;;;;;;;3.77;3.67;;;15.10;99.90;;;;;;5050752;28;20173;-65
2022/12/31 04:29:11;;;;;;;3.90;3.80;;;15.10;99.90;;;;;;5051026;28;20177;-65
2022/12/31 04:31:37;;;;;;;3.80;3.70;;;15.10;99.90;;;;;;5051821;28;20239;-65
2022/12/31 04:34:03;;;;;;;3.40;3.40;;;15.20;99.90;;;;;;5048818;28;20175;-65
2022/12/31 04:36:28;;;;;;;3.70;3.60;;;15.20;99.90;;;;;;5050983;28;20198;-65
2022/12/31 04:38:55;;;;;;;3.87;3.67;;;15.20;99.90;;;;;;5049396;28;20183;-66
2022/12/31 04:41:21;;;;;;;4.10;3.93;;;15.20;99.90;;;;;;5051724;28;20173;-65
2022/12/31 04:43:49;;;;;;;3.80;3.73;;;15.30;99.90;;;;;;5051628;28;20429;-65
2022/12/31 04:46:18;;;;;;;4.20;4.10;;;15.30;99.90;;;;;;5049339;28;20272;-66
2022/12/31 04:48:44;;;;;;;4.10;4.00;;;15.30;99.90;;;;;;5052234;28;20498;-65
2022/12/31 04:51:10;;;;;;;3.90;3.80;;;15.20;99.90;;;;;;5050233;28;20526;-65
2022/12/31 04:53:36;;;;;;;4.20;4.10;;;15.20;99.90;;;;;;5050579;28;20182;-65
2022/12/31 04:56:04;;;;;;;3.87;3.77;;;15.20;99.90;;;;;;5049385;28;20445;-65
2022/12/31 04:58:29;;;;;;;4.30;4.03;;;15.20;99.90;;;;;;5051318;28;20764;-65
2022/12/31 05:00:55;;;;;;;4.00;3.90;;;15.20;99.90;;;;;;5050561;28;20439;-65
2022/12/31 05:03:24;;;;;;;4.00;3.90;;;15.20;99.90;;;;;;5051874;28;20314;-65
2022/12/31 05:05:51;;;;;;;3.87;3.77;;;15.30;99.90;;;;;;5051293;28;20440;-68
2022/12/31 05:08:17;;;;;;;3.67;3.67;;;15.30;99.90;;;;;;5051819;28;20512;-65
2022/12/31 05:10:47;;;;;;;3.70;3.60;;;15.30;99.90;;;;;;5052000;28;20503;-65
2022/12/31 05:13:14;;;;;;;3.80;3.70;;;15.30;99.90;;;;;;5050133;28;20429;-65
2022/12/31 05:15:40;;;;;;;3.73;3.63;;;15.40;99.90;;;;;;5049211;28;20811;-65
2022/12/31 05:18:07;;;;;;;3.77;3.67;;;15.40;99.90;;;;;;5052730;28;20500;-65
2022/12/31 05:20:33;;;;;;;3.63;3.53;;;15.40;99.90;;;;;;5053928;28;20802;-65
2022/12/31 05:22:59;;;;;;;3.60;3.50;;;15.40;99.90;;;;;;5053936;28;20458;-65
2022/12/31 05:25:24;;;;;;;3.80;3.70;;;15.50;99.90;;;;;;5055313;28;20893;-65
2022/12/31 05:27:50;;;;;;;3.40;3.30;;;15.50;99.90;;;;;;5055281;28;20906;-65
2022/12/31 05:30:19;;;;;;;3.47;3.37;;;15.50;99.90;;;;;;5055177;28;20678;-65
2022/12/31 05:32:45;;;;;;;3.70;3.60;;;15.50;99.90;;;;;;5055134;28;20414;-65
2022/12/31 05:35:11;;;;;;;3.60;3.50;;;15.60;99.90;;;;;;5053082;28;21213;-65
2022/12/31 05:37:36;;;;;;;3.40;3.30;;;15.60;99.90;;;;;;5055032;28;20917;-65
2022/12/31 05:40:03;;;;;;;3.50;3.30;;;15.60;99.90;;;;;;5051858;28;20514;-65
2022/12/31 05:42:28;;;;;;;3.20;3.10;;;15.70;99.90;;;;;;5053851;28;20221;-65
2022/12/31 05:44:54;;;;;;;3.07;3.00;;;15.70;99.90;;;;;;5052230;28;20970;-65
2022/12/31 05:47:20;;;;;;;2.97;2.97;;;15.70;99.90;;;;;;5053585;28;20182;-65
2022/12/31 05:49:46;;;;;;;3.13;3.13;;;15.80;99.90;;;;;;5055088;28;20172;-65
2022/12/31 05:52:12;;;;;;;3.20;3.10;;;15.80;99.90;;;;;;5052932;28;20655;-65
2022/12/31 05:54:37;;;;;;;3.73;3.57;;;15.80;99.90;;;;;;5054724;28;20262;-65
2022/12/31 05:57:04;;;;;;;2.93;2.83;;;15.90;99.90;;;;;;5054179;28;20222;-65
2022/12/31 05:59:30;;;;;;;3.33;3.23;;;15.90;99.90;;;;;;5054471;28;20632;-65
2022/12/31 06:01:56;;;;;;;3.40;3.30;;;15.90;99.90;;;;;;5053144;28;20459;-68
2022/12/31 06:04:22;;;;;;;3.43;3.33;;;16.00;99.90;;;;;;5053711;28;20519;-65
2022/12/31 06:06:48;;;;;;;3.30;3.20;;;16.10;99.90;;;;;;5052916;28;20432;-65
2022/12/31 06:09:15;;;;;;;3.30;3.20;;;16.10;99.90;;;;;;5051907;28;20980;-65
2022/12/31 06:11:41;;;;;;;3.67;3.47;;;16.10;99.90;;;;;;5052859;28;20510;-65
2022/12/31 06:14:07;;;;;;;5.03;3.20;;;16.10;99.90;;;;;;5053553;28;20545;-65
2022/12/31 06:16:32;;;;;;;3.73;3.53;;;16.20;99.90;;;;;;5053377;28;20509;-65
2022/12/31 06:18:58;;;;;;;3.50;3.40;;;16.20;99.90;;;;;;5053148;28;20498;-66
2022/12/31 06:21:24;;;;;;;3.77;3.57;;;16.20;99.90;;;;;;5035874;28;20188;-66
2022/12/31 06:23:50;;;;;;;4.40;4.10;;;16.30;99.90;;;;;;5033846;28;20188;-65
2022/12/31 06:26:15;;;;;;;3.43;3.33;;;16.30;99.90;;;;;;5052983;28;20458;-65
2022/12/31 06:28:41;;;;;;;3.90;3.70;;;16.30;99.90;;;;;;5053261;28;20177;-66
2022/12/31 06:31:10;;;;;;;3.30;3.13;;;16.30;99.90;;;;;;5050573;28;20181;-66
2022/12/31 06:33:36;;;;;;;3.40;3.20;;;16.30;99.90;;;;;;5053336;28;20419;-66
2022/12/31 06:36:05;;;;;;;5.90;5.50;;;16.40;99.90;;;;;;5034902;28;20469;-66
2022/12/31 06:38:32;;;;;;;3.53;3.33;;;16.40;99.90;;;;;;5051565;28;20191;-66
2022/12/31 06:41:05;;;;;;;4.30;4.10;;;16.40;99.90;;;;;;5051241;28;20500;-71
2022/12/31 06:43:32;;;;;;;3.50;3.40;;;16.40;99.90;;;;;;5053476;28;20452;-66
2022/12/31 06:46:02;;;;;;;3.50;3.40;;;16.50;99.90;;;;;;5052046;28;20451;-71
2022/12/31 06:48:28;;;;;;;3.33;3.13;;;16.50;99.90;;;;;;5051776;28;20516;-66
2022/12/31 06:50:53;;;;;;;3.30;3.20;;;16.50;99.90;;;;;;5053147;28;20509;-63
2022/12/31 06:53:19;;;;;;;3.60;3.40;;;16.50;99.90;;;;;;5052371;28;20753;-64
2022/12/31 06:55:47;;;;;;;3.30;3.20;;;16.60;99.90;;;;;;5051958;28;20173;-64
2022/12/31 06:58:14;;;;;;;3.30;3.20;;;16.60;99.90;;;;;;5051551;28;20189;-64
2022/12/31 07:00:57;;;;;;;3.33;3.23;;;16.60;99.90;;;;;;5044006;28;20483;-65
2022/12/31 07:03:56;;;;;;;3.00;2.90;;;16.60;99.90;;;;;;5050330;28;20958;-64
2022/12/31 07:06:46;;;;;;;3.00;2.90;;;16.60;99.90;;;;;;5051666;28;20450;-64
2022/12/31 07:09:44;;;;;;;3.50;3.30;;;16.70;99.90;;;;;;5052515;28;20465;-64
2022/12/31 07:12:47;;;;;;;3.10;3.00;;;16.70;99.90;;;;;;5052440;28;20477;-63
2022/12/31 07:15:47;;;;;;;2.70;2.60;;;16.70;99.90;;;;;;5048686;28;20428;-63
2022/12/31 07:18:37;;;;;;;3.27;3.07;;;16.70;99.90;;;;;;5050958;28;20482;-64
2022/12/31 07:21:03;;;;;;;3.30;3.10;;;16.70;99.90;;;;;;5050249;28;20446;-64
2022/12/31 07:23:31;;;;;;;3.80;3.60;;;16.80;99.90;;;;;;5045135;28;20472;-64
2022/12/31 07:26:21;;;;;;;3.40;3.30;;;16.80;99.90;;;;;;5052086;28;20534;-64
2022/12/31 07:29:15;;;;;;;3.13;2.93;;;16.80;99.90;;;;;;5052959;28;20432;-64
2022/12/31 07:31:44;;;;;;;3.53;3.33;;;16.80;99.90;;;;;;5046798;28;20443;-64
2022/12/31 07:34:31;;;;;;;3.10;2.80;;;16.80;99.90;;;;;;5051999;28;20419;-64
2022/12/31 07:37:04;;;;;;;3.23;3.03;;;16.80;99.90;;;;;;5050251;28;20459;-64
2022/12/31 07:39:33;;;;;;;2.90;2.80;;;16.80;99.90;;;;;;5051859;28;20475;-64
2022/12/31 07:42:12;;;;;;;3.00;2.90;;;16.80;99.90;;;;;;5050569;28;20495;-74
2022/12/31 07:44:59;;;;;;;2.80;2.70;;;16.70;99.90;;;;;;5048462;28;20439;-65
2022/12/31 07:47:27;;;;;;;3.20;3.10;;;16.80;99.90;;;;;;5049672;28;20951;-64
2022/12/31 07:49:53;;;;;;;3.00;2.80;;;16.80;99.90;;;;;;5050930;28;20915;-65
2022/12/31 07:52:20;;;;;;;3.43;3.23;;;16.90;99.90;;;;;;5047455;28;20423;-65
2022/12/31 07:54:46;;;;;;;3.33;3.20;;;16.90;99.90;;;;;;5049080;28;20442;-66
2022/12/31 07:57:15;;;;;;;4.33;4.03;;;16.90;99.90;;;;;;5045765;28;20501;-67
2022/12/31 08:00:05;;;;;;;3.50;3.30;;;16.90;99.90;;;;;;5037820;28;20916;-66
2022/12/31 08:03:08;;;;;;;3.97;3.67;;;17.00;99.90;;;;;;5046291;28;20452;-67
2022/12/31 08:05:54;;;;;;;3.80;3.60;;;17.10;99.90;;;;;;5051016;28;20404;-67
2022/12/31 08:08:41;;;;;;;3.60;3.50;;;17.10;99.90;;;;;;5048489;28;20736;-67
2022/12/31 08:11:42;;;;;;;3.30;3.20;;;17.10;99.90;;;;;;5049397;28;20489;-67
2022/12/31 08:14:12;;;;;;;3.50;3.33;;;17.10;99.90;;;;;;5045024;28;20510;-67
2022/12/31 08:16:38;;;;;;;3.90;3.80;;;17.10;99.90;;;;;;5032789;28;20988;-67
2022/12/31 08:19:04;;;;;;;4.27;4.00;;;17.20;99.90;;;;;;5042606;28;20447;-68
2022/12/31 08:21:45;;;;;;;3.23;3.13;;;17.10;99.90;;;;;;5046722;28;21421;-66
2022/12/31 08:24:26;;;;;;;3.70;3.50;;;17.20;99.90;;;;;;5049672;28;20473;-64
2022/12/31 08:27:11;;;;;;;3.30;3.00;;;17.20;99.90;;;;;;5050717;28;20432;-67
2022/12/31 08:29:43;;;;;;;5.03;4.63;;;17.20;99.90;;;;;;5048117;28;20432;-66
2022/12/31 08:32:35;;;;;;;3.37;3.27;;;17.20;99.90;;;;;;5042996;28;20936;-66
2022/12/31 08:35:23;;;;;;;3.23;3.07;;;17.20;99.90;;;;;;5048509;28;20451;-66
2022/12/31 08:37:49;;;;;;;3.27;3.07;;;17.20;99.90;;;;;;5048804;28;20757;-68
2022/12/31 08:40:27;;;;;;;3.23;3.13;;;17.30;99.90;;;;;;5049860;28;20451;-68
2022/12/31 08:43:37;;;;;;;3.73;3.43;;;17.30;99.90;;;;;;5052144;28;20217;-68
2022/12/31 08:46:08;;;;;;;3.00;2.90;;;17.30;99.90;;;;;;5050218;28;20416;-68
2022/12/31 08:48:42;;;;;;;3.10;2.70;;;17.40;99.90;;;;;;5052123;28;20424;-68
2022/12/31 08:51:20;;;;;;;14.00;12.60;;;17.40;99.90;;;;;;5049748;28;20458;-68
2022/12/31 08:53:47;;;;;;;34.07;23.20;;;17.40;99.90;;;;;;5053092;28;20503;-68
2022/12/31 08:56:45;;;;;;;3.73;3.53;;;17.40;99.90;;;;;;5053768;28;20503;-67
2022/12/31 08:59:28;;;;;;;3.30;3.10;;;17.40;99.90;;;;;;5048293;28;20427;-68
2022/12/31 09:02:06;;;;;;;3.40;3.20;;;17.40;99.90;;;;;;5051160;28;21030;-67
2022/12/31 09:04:49;;;;;;;3.30;3.20;;;17.40;99.90;;;;;;5046241;28;20450;-67
2022/12/31 09:07:18;;;;;;;3.20;3.10;;;17.40;99.90;;;;;;5054094;28;20481;-68
2022/12/31 09:10:17;;;;;;;3.40;3.30;;;17.40;99.90;;;;;;5054659;28;20416;-68
2022/12/31 09:13:28;;;;;;;2.90;2.80;;;17.40;99.90;;;;;;5052595;28;20460;-68
2022/12/31 09:16:17;;;;;;;3.67;3.40;;;17.40;99.90;;;;;;5046067;28;20933;-68
2022/12/31 09:18:43;;;;;;;3.23;3.03;;;17.40;99.90;;;;;;5046417;28;20435;-64
2022/12/31 09:21:12;;;;;;;3.27;3.17;;;17.40;99.90;;;;;;5054063;28;20965;-64
2022/12/31 09:23:39;;;;;;;3.10;3.00;;;17.40;99.90;;;;;;5035313;28;20719;-64
2022/12/31 09:26:16;;;;;;;3.20;3.00;;;17.40;99.90;;;;;;5033648;28;20417;-65
2022/12/31 09:28:55;;;;;;;3.23;2.80;;;17.30;99.90;;;;;;5035305;28;20409;-64
2022/12/31 09:31:47;;;;;;;2.93;2.70;;;17.30;99.90;;;;;;5034788;28;20478;-64
2022/12/31 09:34:31;;;;;;;3.10;3.00;;;17.30;99.90;;;;;;5037225;28;20425;-64
2022/12/31 09:37:05;;;;;;;3.10;3.00;;;17.30;99.90;;;;;;5049655;28;20794;-64
2022/12/31 09:39:41;;;;;;;6.10;2.77;;;17.30;99.90;;;;;;5049768;28;20472;-67
2022/12/31 09:42:35;;;;;;;3.17;2.97;;;17.20;99.90;;;;;;5051511;28;20452;-64
2022/12/31 09:45:06;;;;;;;3.17;3.05;;;17.30;99.90;;;;;;5047988;28;20814;-64
2022/12/31 09:47:53;;;;;;;3.13;3.03;;;17.30;99.90;;;;;;5050578;28;20629;-64
2022/12/31 09:50:28;;;;;;;2.80;2.70;;;17.40;99.90;;;;;;5052647;28;20841;-64
2022/12/31 09:53:42;;;;;;;3.20;3.00;;;17.40;99.90;;;;;;5053045;28;20968;-64
2022/12/31 09:56:32;;;;;;;76.57;69.90;;;17.40;99.90;;;;;;5045780;28;20928;-66
2022/12/31 09:59:10;;;;;;;29.43;21.67;;;17.40;99.90;;;;;;5052877;28;20414;-64
2022/12/31 10:01:42;;;;;;;5.23;3.00;;;17.40;99.90;;;;;;5051740;28;20578;-64
2022/12/31 10:04:53;;;;;;;3.83;3.03;;;17.40;99.90;;;;;;5051609;28;20440;-64
2022/12/31 10:07:35;;;;;;;3.10;2.90;;;17.40;99.90;;;;;;5050744;28;20416;-64
2022/12/31 10:10:04;;;;;;;3.57;3.37;;;17.40;99.90;;;;;;5053855;28;20428;-64
2022/12/31 10:13:08;;;;;;;3.30;3.20;;;17.40;99.90;;;;;;5034741;28;20424;-64
2022/12/31 10:15:57;;;;;;;3.20;3.00;;;17.40;99.90;;;;;;5038080;28;20483;-64
2022/12/31 10:18:33;;;;;;;3.27;3.03;;;17.40;99.90;;;;;;5050773;28;21004;-64
2022/12/31 10:21:26;;;;;;;3.30;3.20;;;17.50;99.90;;;;;;5052572;28;20412;-64
2022/12/31 10:24:17;;;;;;;3.33;3.23;;;17.50;99.90;;;;;;5054149;28;20533;-64
2022/12/31 10:27:13;;;;;;;3.07;2.97;;;17.50;99.90;;;;;;5054307;28;20485;-64
2022/12/31 10:29:58;;;;;;;3.20;3.10;;;17.50;99.90;;;;;;5054063;28;20415;-64
2022/12/31 10:32:37;;;;;;;3.10;3.00;;;17.50;99.90;;;;;;5053579;28;20719;-63
2022/12/31 10:35:09;;;;;;;3.40;3.20;;;17.50;99.90;;;;;;5054147;28;20407;-64
2022/12/31 10:38:00;;;;;;;3.00;2.90;;;17.50;99.90;;;;;;5051302;28;20470;-64
2022/12/31 10:40:37;;;;;;;2.87;2.70;;;17.60;99.90;;;;;;5052854;28;20467;-64
2022/12/31 10:43:15;;;;;;;3.20;3.10;;;17.60;99.90;;;;;;5053937;28;20455;-64
2022/12/31 10:45:50;;;;;;;3.03;2.93;;;17.60;99.90;;;;;;5052806;28;20417;-64
2022/12/31 10:48:33;;;;;;;3.53;3.33;;;17.70;99.90;;;;;;5051607;28;20419;-63
2022/12/31 10:51:30;;;;;;;3.37;3.07;;;17.70;99.90;;;;;;5052483;28;20754;-64
2022/12/31 10:54:34;;;;;;;2.83;2.73;;;17.70;99.90;;;;;;5035950;28;20436;-64
2022/12/31 10:57:18;;;;;;;3.53;3.23;;;17.70;99.90;;;;;;5052592;28;20487;-64
2022/12/31 11:00:05;;;;;;;4.10;3.10;;;17.70;99.90;;;;;;5053334;28;20397;-64
2022/12/31 11:02:48;;;;;;;3.23;2.90;;;17.80;99.90;;;;;;5053182;28;20806;-64
2022/12/31 11:05:32;;;;;;;2.63;2.53;;;17.70;99.90;;;;;;5051700;28;20423;-64
2022/12/31 11:08:21;;;;;;;3.10;2.90;;;17.70;99.90;;;;;;5050874;28;20425;-64
2022/12/31 11:11:11;;;;;;;3.07;2.90;;;17.80;99.90;;;;;;5050292;28;20458;-64
2022/12/31 11:14:14;;;;;;;3.30;3.10;;;17.80;99.90;;;;;;5050030;28;20994;-65
2022/12/31 11:16:48;;;;;;;4.00;3.80;;;17.80;99.90;;;;;;5052152;28;20879;-65
2022/12/31 11:19:31;;;;;;;3.20;3.00;;;17.70;99.90;;;;;;5052306;28;20412;-64
2022/12/31 11:22:06;;;;;;;3.13;2.97;;;17.70;99.90;;;;;;5051765;28;20850;-65
2022/12/31 11:24:40;;;;;;;3.00;2.90;;;17.80;99.90;;;;;;5051883;28;20463;-64
2022/12/31 11:27:34;;;;;;;3.07;2.87;;;17.90;99.90;;;;;;5049784;28;20454;-68
2022/12/31 11:30:24;;;;;;;3.20;3.10;;;17.90;99.90;;;;;;5050955;28;20414;-65
2022/12/31 11:32:53;;;;;;;3.27;3.07;;;18.00;99.90;;;;;;5049539;28;20451;-67
2022/12/31 11:36:07;;;;;;;2.90;2.80;;;18.10;99.90;;;;;;5051058;28;20546;-64
2022/12/31 11:38:39;;;;;;;3.53;3.23;;;18.00;99.90;;;;;;5052331;28;20400;-65
2022/12/31 11:41:21;;;;;;;3.67;3.37;;;18.00;99.90;;;;;;5048695;28;20468;-67
2022/12/31 11:44:21;;;;;;;3.27;3.07;;;18.10;99.90;;;;;;5034658;28;20456;-68
2022/12/31 11:47:18;;;;;;;3.60;3.40;;;18.00;99.90;;;;;;5048050;28;20495;-65
2022/12/31 11:49:53;;;;;;;3.33;3.10;;;18.00;99.90;;;;;;5045842;28;20423;-64
2022/12/31 11:52:27;;;;;;;3.07;2.87;;;18.10;99.90;;;;;;5051671;28;20395;-67
2022/12/31 11:55:30;;;;;;;2.73;2.63;;;18.00;99.90;;;;;;5051475;28;20411;-64
2022/12/31 11:58:07;;;;;;;4.97;3.50;;;18.00;99.90;;;;;;5051947;28;20424;-64
2022/12/31 12:00:33;;;;;;;3.53;3.27;;;18.00;99.90;;;;;;5052131;28;20788;-65
2022/12/31 12:03:05;;;;;;;3.40;3.20;;;18.00;99.90;;;;;;5051561;28;20460;-64
2022/12/31 12:05:31;;;;;;;3.40;3.30;;;18.00;99.90;;;;;;5049696;28;20427;-67
2022/12/31 12:07:57;;;;;;;3.13;2.93;;;18.00;99.90;;;;;;5033610;28;20779;-64
2022/12/31 12:10:28;;;;;;;3.10;2.90;;;18.00;99.90;;;;;;5050856;28;20412;-64
2022/12/31 12:12:55;;;;;;;60.07;40.07;;;18.00;99.90;;;;;;5052017;28;20188;-64
2022/12/31 12:15:34;;;;;;;18.80;13.33;;;18.00;99.90;;;;;;5049483;28;20767;-64
2022/12/31 12:18:12;;;;;;;3.27;3.07;;;18.00;99.90;;;;;;5049764;28;20557;-64
2022/12/31 12:20:39;;;;;;;3.83;2.60;;;18.10;99.90;;;;;;5052166;28;20860;-65
2022/12/31 12:23:31;;;;;;;2.97;2.73;;;18.00;99.90;;;;;;5052452;28;20456;-62
2022/12/31 12:25:57;;;;;;;3.03;2.83;;;18.00;99.90;;;;;;5049794;28;20919;-63
2022/12/31 12:28:26;;;;;;;2.80;2.70;;;18.00;99.90;;;;;;5055582;28;20442;-63
2022/12/31 12:30:55;;;;;;;4.27;2.73;;;18.00;99.90;;;;;;5056225;28;20184;-63
2022/12/31 12:33:21;;;;;;;2.40;2.30;;;18.00;99.90;;;;;;5055311;28;20511;-63
2022/12/31 12:35:47;;;;;;;4.40;2.83;;;18.00;99.90;;;;;;5054015;28;20507;-63
2022/12/31 12:38:17;;;;;;;2.90;2.70;;;18.00;99.90;;;;;;5054889;28;20189;-63
2022/12/31 12:40:58;;;;;;;2.90;2.73;;;18.00;99.90;;;;;;5054291;28;20995;-63
2022/12/31 12:43:30;;;;;;;3.67;3.10;;;18.00;99.90;;;;;;5035457;28;20455;-63
2022/12/31 12:46:17;;;;;;;58.30;45.00;;;18.00;99.90;;;;;;5055149;28;20509;-63
2022/12/31 12:48:46;;;;;;;5.00;4.60;;;18.00;99.90;;;;;;5055724;28;20404;-63
2022/12/31 12:51:45;;;;;;;3.30;3.10;;;17.90;99.90;;;;;;5054887;28;20416;-63
2022/12/31 12:54:22;;;;;;;3.30;3.10;;;18.00;99.90;;;;;;5050235;28;20452;-64
2022/12/31 12:56:57;;;;;;;3.60;3.30;;;18.00;99.90;;;;;;5047684;28;20404;-64
2022/12/31 12:59:41;;;;;;;3.90;3.60;;;18.00;99.90;;;;;;5049793;28;20424;-63
2022/12/31 13:02:50;;;;;;;3.50;3.30;;;17.90;99.90;;;;;;5051437;28;20801;-64
2022/12/31 13:05:47;;;;;;;4.80;4.40;;;17.90;99.90;;;;;;5030250;28;20424;-64
2022/12/31 13:08:47;;;;;;;3.40;3.20;;;17.80;99.90;;;;;;5053786;28;20421;-65
2022/12/31 13:11:31;;;;;;;3.60;3.40;;;17.70;99.90;;;;;;5049194;28;20489;-64
2022/12/31 13:14:06;;;;;;;4.00;3.70;;;17.50;99.90;;;;;;5054688;28;20875;-64
2022/12/31 13:16:48;;;;;;;5.00;4.60;;;17.50;99.90;;;;;;5053299;28;20764;-65
2022/12/31 13:19:16;;;;;;;3.67;3.47;;;17.40;99.90;;;;;;5052655;28;20420;-64
2022/12/31 13:22:03;;;;;;;3.30;3.10;;;17.30;99.90;;;;;;5054677;28;20474;-64
2022/12/31 13:24:52;;;;;;;3.40;3.20;;;17.30;99.90;;;;;;5054161;28;20396;-65
2022/12/31 13:27:27;;;;;;;4.10;3.70;;;17.30;99.90;;;;;;5051063;28;20914;-64
2022/12/31 13:29:57;;;;;;;3.40;3.20;;;17.20;99.90;;;;;;5054674;28;20400;-64
2022/12/31 13:32:47;;;;;;;76.27;54.40;;;17.20;99.90;;;;;;5053480;28;20401;-65